Flight Track Log - Related Links

Times and Time Zones

All times are in EDT time to prevent confusion due to time zone crossing. See the AZU4319 flight status page for this flight to view local times or setup timezone preferences in your user account.

Time Position Orientation Groundspeed Altitude Reporting Facility
EDT Latitude Longitude Course Direction KTS MPH feet Rate Location/Type
Wed 07:56:38 PM -21.5574 -48.7903 138° Southeast 267 307 15,000  Level FlightAware ADS-B (SDAM)
Wed 07:57:31 PM -21.6082 -48.7422 138° Southeast 272 313 15,000  Level FlightAware ADS-B (SDAM)
Wed 07:57:59 PM -21.6321 -48.7199 138° Southeast 274 315 15,000  Level FlightAware ADS-B (SDAM)
Wed 07:58:28 PM -21.6632 -48.6910 139° Southeast 275 316 15,000  Level FlightAware ADS-B (SDAM)
Wed 07:58:50 PM -21.6699 -48.6848 138° Southeast 277 319 15,000  Level FlightAware ADS-B (SDAM)
Wed 07:59:32 PM -21.7242 -48.6340 138° Southeast 277 319 15,000  Level FlightAware ADS-B (SDAM)
Wed 07:59:52 PM -21.7365 -48.6225 138° Southeast 277 319 15,000  Level FlightAware ADS-B (SDAM)
Wed 08:00:32 PM -21.7829 -48.5793 138° Southeast 275 316 15,000  Level FlightAware ADS-B (SDAM)
Wed 08:01:02 PM -21.8009 -48.5623 138° Southeast 275 316 15,000  Level FlightAware ADS-B (SDAM)
Wed 08:01:33 PM -21.8399 -48.5249 137° Southeast 275 316 15,000  Level FlightAware ADS-B (SDAM)
Wed 08:02:03 PM -21.8697 -48.4951 136° Southeast 273 314 15,000  Level FlightAware ADS-B (SDAM)
Wed 08:02:32 PM -21.8972 -48.4676 137° Southeast 274 315 15,000  Level FlightAware ADS-B (SDAM)
Wed 08:03:02 PM -21.9253 -48.4397 137° Southeast 274 315 15,000  Level FlightAware ADS-B (SDAM)
Wed 08:03:32 PM -21.9533 -48.4119 137° Southeast 273 314 15,000  Level FlightAware ADS-B (SDAM)
Wed 08:04:01 PM -21.9803 -48.3852 137° Southeast 272 313 15,000  Level FlightAware ADS-B (SDAM)
Wed 08:04:52 PM -22.0249 -48.3358 133° Southeast 270 311 15,000  Level FlightAware ADS-B (SDAM)
Wed 08:05:22 PM -22.0511 -48.3059 133° Southeast 270 311 15,000  Level FlightAware ADS-B (SDAM)
Wed 08:05:52 PM -22.0773 -48.2765 133° Southeast 272 313 15,000  Level FlightAware ADS-B (SDAM)
Wed 08:06:23 PM -22.1034 -48.2471 133° Southeast 272 313 15,000  Level FlightAware ADS-B (SDAM)
Wed 08:06:52 PM -22.1295 -48.2177 133° Southeast 273 314 15,000  Level FlightAware ADS-B (SDAM)
Wed 08:07:23 PM -22.1561 -48.1877 133° Southeast 275 316 15,000  Level FlightAware ADS-B (SDAM)
Wed 08:07:52 PM -22.1826 -48.1579 133° Southeast 275 316 15,000  Level FlightAware ADS-B (SDAM)
Wed 08:08:23 PM -22.2094 -48.1276 133° Southeast 275 316 15,000  Level FlightAware ADS-B (SDAM)
Wed 08:08:52 PM -22.2355 -48.0980 133° Southeast 275 316 15,000  Level FlightAware ADS-B (SDAM)
Wed 08:09:23 PM -22.2621 -48.0681 133° Southeast 275 316 15,000  Level FlightAware ADS-B (SDAM)
Wed 08:09:52 PM -22.2892 -48.0374 133° Southeast 277 319 15,000  Level FlightAware ADS-B (SDAM)
Wed 08:10:22 PM -22.3152 -48.0080 133° Southeast 277 319 15,000  Level FlightAware ADS-B (SDAM)
Wed 08:10:52 PM -22.3416 -47.9781 133° Southeast 278 320 15,000  Level FlightAware ADS-B (SDAM)
Wed 08:11:23 PM -22.3689 -47.9473 133° Southeast 278 320 15,000  Level FlightAware ADS-B (SDAM)
Wed 08:11:52 PM -22.3956 -47.9169 133° Southeast 278 320 15,000  Level FlightAware ADS-B (SDAM)
Wed 08:12:22 PM -22.4223 -47.8868 133° Southeast 278 320 15,000  Level FlightAware ADS-B (SDAM)
Wed 08:12:52 PM -22.4484 -47.8571 133° Southeast 277 319 15,000  Level FlightAware ADS-B (SDAM)
Wed 08:13:23 PM -22.4756 -47.8263 133° Southeast 277 319 15,000  Level FlightAware ADS-B (SDAM)
Wed 08:13:53 PM -22.5023 -47.7961 133° Southeast 276 318 15,000  Level FlightAware ADS-B (SDAM)
Wed 08:14:22 PM -22.5287 -47.7661 133° Southeast 276 318 15,000  Level FlightAware ADS-B (SDAM)
Wed 08:14:52 PM -22.5554 -47.7358 133° Southeast 276 318 15,000 -369 Level FlightAware ADS-B (SDAM)
Wed 08:15:27 PM -22.5870 -47.6999 133° Southeast 289 333 14,600 -1,015 Descending FlightAware ADS-B (SDAM)
Wed 08:15:57 PM -22.6147 -47.6684 133° Southeast 291 335 13,900 -1,475 Descending FlightAware ADS-B (SDAM)
Wed 08:16:28 PM -22.6428 -47.6365 133° Southeast 286 329 13,100 -1,500 Descending FlightAware ADS-B (SDAM)
Wed 08:16:57 PM -22.6699 -47.6055 133° Southeast 283 326 12,400 -1,500 Descending FlightAware ADS-B (SDAM)
Wed 08:17:28 PM -22.6966 -47.5749 131° Southeast 281 323 11,600 -1,500 Descending FlightAware ADS-B (SDAM)
Wed 08:17:57 PM -22.7205 -47.5411 126° Southeast 281 323 10,900 -1,525 Descending FlightAware ADS-B (SDAM)
Wed 08:18:27 PM -22.7438 -47.5066 124° Southeast 279 321 10,100 -1,467 Descending FlightAware ADS-B (SDAM)
Wed 08:18:42 PM -22.7541 -47.4895 122° Southeast 276 318 9,800 -1,355 Descending FlightAware ADS-B (SDAM)
Wed 08:18:58 PM -22.7649 -47.4723 126° Southeast 271 312 9,400 -1,400 Descending FlightAware ADS-B (SDAM)
Wed 08:19:12 PM -22.7763 -47.4558 127° Southeast 267 307 9,100 -1,241 Descending FlightAware ADS-B (SDAM)
Wed 08:19:27 PM -22.7873 -47.4403 127° Southeast 263 303 8,800 -1,400 Descending FlightAware ADS-B (SDAM)
Wed 08:19:42 PM -22.7987 -47.4247 128° Southeast 261 300 8,400 -1,600 Descending FlightAware ADS-B (SDAM)
Wed 08:19:57 PM -22.8099 -47.4094 128° Southeast 259 298 8,000 -1,548 Descending FlightAware ADS-B (SDAM)
Wed 08:20:13 PM -22.8212 -47.3939 128° Southeast 258 297 7,600 -1,400 Descending FlightAware ADS-B (SDAM)
Wed 08:20:27 PM -22.8321 -47.3790 127° Southeast 247 284 7,300 -1,400 Descending FlightAware ADS-B (SDAM)
Wed 08:20:43 PM -22.8425 -47.3646 127° Southeast 235 270 6,900 -1,355 Descending FlightAware ADS-B (SDAM)
Wed 08:20:58 PM -22.8525 -47.3505 127° Southeast 223 257 6,600 -1,241 Descending FlightAware ADS-B (SDAM)
Wed 08:21:12 PM -22.8614 -47.3379 127° Southeast 213 245 6,300 -1,241 Descending FlightAware ADS-B (SDAM)
Wed 08:21:27 PM -22.8701 -47.3257 127° Southeast 204 235 6,000 -1,000 Descending FlightAware ADS-B (SDAM)
Wed 08:21:42 PM -22.8788 -47.3135 127° Southeast 196 226 5,800 -1,000 Descending FlightAware ADS-B (SDAM)
Wed 08:21:57 PM -22.8871 -47.3021 127° Southeast 188 216 5,500 -968 Descending FlightAware ADS-B (SDAM)
Wed 08:22:13 PM -22.8951 -47.2910 127° Southeast 178 205 5,300 -968 Descending FlightAware ADS-B (SDAM)
Wed 08:22:28 PM -22.9024 -47.2808 127° Southeast 170 196 5,000 -1,034 Descending FlightAware ADS-B (SDAM)
Wed 08:22:42 PM -22.9095 -47.2710 127° Southeast 161 185 4,800 -828 Descending FlightAware ADS-B (SDAM)
Wed 08:22:57 PM -22.9161 -47.2617 128° Southeast 150 173 4,600 -800 Descending FlightAware ADS-B (SDAM)
Wed 08:23:12 PM -22.9225 -47.2528 127° Southeast 144 166 4,400 -800 Descending FlightAware ADS-B (SDAM)
Wed 08:23:27 PM -22.9286 -47.2446 128° Southeast 140 161 4,200 -774 Descending FlightAware ADS-B (SDAM)
Wed 08:23:43 PM -22.9346 -47.2362 127° Southeast 134 154 4,000 -774 Descending FlightAware ADS-B (SDAM)
Wed 08:23:58 PM -22.9400 -47.2286 127° Southeast 124 143 3,800 -621 Descending FlightAware ADS-B (SDAM)
Wed 08:24:12 PM -22.9451 -47.2214 128° Southeast 116 133 3,700 -621 Descending FlightAware ADS-B (SDAM)
Wed 08:24:27 PM -22.9501 -47.2145 127° Southeast 112 129 3,500 -600 Descending FlightAware ADS-B (SDAM)
Wed 08:24:42 PM -22.9549 -47.2078 128° Southeast 111 128 3,400 -581 Descending FlightAware ADS-B (SDAM)
Wed 08:24:58 PM -22.9596 -47.2013 127° Southeast 108 124 3,200 -600 Descending FlightAware ADS-B (SDAM)
Wed 08:25:12 PM -22.9642 -47.1948 127° Southeast 108 124 3,100 -621 Descending FlightAware ADS-B (SDAM)
Wed 08:25:27 PM -22.9688 -47.1883 127° Southeast 107 123 2,900 -600 Descending FlightAware ADS-B (SDAM)
Wed 08:25:42 PM -22.9733 -47.1820 128° Southeast 106 122 2,800 -600 Descending FlightAware ADS-B (SDAM)
Wed 08:25:57 PM -22.9781 -47.1755 127° Southeast 107 123 2,600 -600 Descending FlightAware ADS-B (SDAM)
Wed 08:26:12 PM -22.9826 -47.1690 127° Southeast 107 123 2,500 -400 Descending FlightAware ADS-B (SDAM)
Wed 08:26:27 PM -22.9873 -47.1627 127° Southeast 109 125 2,400 -581 Descending FlightAware ADS-B (SDAM)
Wed 08:26:43 PM -22.9920 -47.1560 126° Southeast 108 124 2,200 -600 Descending FlightAware ADS-B (SDAM)
Wed 08:26:57 PM -22.9966 -47.1496 127° Southeast 107 123 2,100 -353 Descending FlightAware ADS-B (SDAM)
Wed 08:27:17 PM -23.0015 -47.1427 127° Southeast 92 106 2,000 -300 Descending FlightAware ADS-B (SDAM)

Login

Don't have an account? Register now (free) for customized features, flight alerts, and more!